Time;durP1;ratioP1;P1;durP2;ratioP2;P2;SDS_P1;SDS_P2;PMS_P1;PMS_P2;Temp;Humidity;BMP_temperature;BMP_pressure;BME280_temperature;BME280_humidity;BME280_pressure;Samples;Min_cycle;Max_cycle;Signal;HPM_P1;HPM_P2
2021/11/13 00:00:01;;;;;;;0.20;0.00;;;19.20;79.10;;;;;;5085326;28;20451;-74
2021/11/13 00:02:29;;;;;;;0.00;0.00;;;19.30;80.10;;;;;;5082171;28;20050;-78
2021/11/13 00:04:56;;;;;;;0.00;0.00;;;19.40;79.30;;;;;;5080402;28;20029;-75
2021/11/13 00:07:24;;;;;;;0.08;0.00;;;19.30;79.20;;;;;;5083017;28;20028;-76
2021/11/13 00:09:51;;;;;;;0.00;0.00;;;19.30;80.00;;;;;;5077434;28;20020;-78
2021/11/13 00:12:19;;;;;;;0.22;0.00;;;19.40;80.60;;;;;;5086191;28;20475;-75
2021/11/13 00:14:46;;;;;;;1.30;0.00;;;19.50;80.50;;;;;;5078333;28;20485;-74
2021/11/13 00:17:16;;;;;;;0.00;0.00;;;19.30;80.50;;;;;;5079832;28;20455;-75
2021/11/13 00:19:44;;;;;;;0.00;0.00;;;19.40;82.00;;;;;;5074283;28;20470;-74
2021/11/13 00:22:12;;;;;;;0.00;0.00;;;19.50;81.20;;;;;;5076309;28;20020;-73
2021/11/13 00:24:39;;;;;;;0.00;0.00;;;19.40;79.30;;;;;;5088590;28;20020;-74
2021/11/13 00:27:08;;;;;;;0.00;0.00;;;19.10;79.30;;;;;;5078534;28;20032;-73
2021/11/13 00:29:35;;;;;;;0.43;0.00;;;18.90;79.80;;;;;;5086178;28;20024;-74
2021/11/13 00:32:04;;;;;;;0.00;0.00;;;19.00;81.90;;;;;;5085022;28;20500;-76
2021/11/13 00:34:31;;;;;;;0.43;0.00;;;19.30;80.70;;;;;;5086664;28;20071;-75
2021/11/13 00:36:58;;;;;;;0.00;0.00;;;19.40;79.90;;;;;;5081219;28;20012;-73
2021/11/13 00:39:27;;;;;;;0.10;0.00;;;19.40;80.20;;;;;;5088122;28;20103;-73
2021/11/13 00:41:55;;;;;;;0.22;0.20;;;19.70;81.00;;;;;;5087371;28;20491;-75
2021/11/13 00:44:22;;;;;;;0.00;0.00;;;19.70;79.50;;;;;;5079159;28;20035;-75
2021/11/13 00:46:49;;;;;;;0.10;0.03;;;19.60;79.90;;;;;;5078312;28;20104;-76
2021/11/13 00:49:18;;;;;;;0.00;0.00;;;19.70;80.10;;;;;;5080856;28;20035;-74
2021/11/13 00:51:46;;;;;;;0.30;0.00;;;19.80;80.00;;;;;;5077158;28;20032;-74
2021/11/13 00:54:14;;;;;;;0.10;0.00;;;20.00;81.00;;;;;;5079819;28;20032;-74
2021/11/13 00:56:41;;;;;;;0.10;0.00;;;20.10;80.10;;;;;;5077276;28;20028;-75
2021/11/13 00:59:08;;;;;;;0.85;0.25;;;20.00;79.80;;;;;;5080077;28;20028;-73
2021/11/13 01:01:36;;;;;;;0.10;0.00;;;20.10;79.60;;;;;;5075224;28;20024;-73
2021/11/13 01:04:04;;;;;;;0.13;0.13;;;20.10;79.10;;;;;;5082074;28;20498;-77
2021/11/13 01:06:31;;;;;;;0.88;0.08;;;20.30;80.10;;;;;;5084438;28;20024;-76
2021/11/13 01:08:59;;;;;;;0.00;0.00;;;20.30;79.70;;;;;;5073398;28;20024;-75
2021/11/13 01:11:27;;;;;;;2.03;0.20;;;20.50;78.40;;;;;;5079795;28;20032;-74
2021/11/13 01:13:56;;;;;;;1.55;0.10;;;20.70;78.70;;;;;;5089398;28;20086;-74
2021/11/13 01:16:26;;;;;;;0.00;0.00;;;20.90;77.80;;;;;;5059550;28;20033;-74
2021/11/13 01:18:55;;;;;;;0.20;0.10;;;20.90;76.90;;;;;;5074716;28;20028;-74
2021/11/13 01:21:26;;;;;;;0.22;0.05;;;20.90;76.40;;;;;;5087788;28;20024;-74
2021/11/13 01:23:54;;;;;;;0.08;0.05;;;20.80;77.00;;;;;;5056723;28;20028;-75
2021/11/13 01:26:22;;;;;;;0.00;0.00;;;20.60;77.70;;;;;;5078878;28;20585;-74
2021/11/13 01:28:50;;;;;;;0.00;0.00;;;20.50;78.00;;;;;;5085635;28;20028;-73
2021/11/13 01:31:18;;;;;;;0.00;0.00;;;20.40;77.30;;;;;;5082356;28;20025;-73
2021/11/13 01:33:46;;;;;;;0.17;0.08;;;20.20;78.00;;;;;;5086208;28;20047;-73
2021/11/13 01:36:14;;;;;;;2.55;0.20;;;20.30;78.50;;;;;;5082238;28;20020;-74
2021/11/13 01:38:42;;;;;;;1.55;0.15;;;20.60;78.30;;;;;;5083823;28;20417;-76
2021/11/13 01:41:10;;;;;;;0.20;0.10;;;21.10;76.80;;;;;;5087952;28;20383;-75
2021/11/13 01:43:39;;;;;;;0.10;0.08;;;21.50;76.70;;;;;;5087107;28;20382;-75
2021/11/13 01:46:09;;;;;;;1.58;0.75;;;21.80;75.70;;;;;;5087207;28;20042;-75
2021/11/13 01:48:37;;;;;;;0.10;0.05;;;21.70;74.80;;;;;;5083525;28;20025;-76
2021/11/13 01:51:17;;;;;;;0.00;0.00;;;21.70;74.70;;;;;;5071278;28;20167;-76
2021/11/13 01:53:46;;;;;;;0.10;0.00;;;21.80;74.30;;;;;;5074849;28;20483;-75
2021/11/13 01:56:17;;;;;;;0.00;0.00;;;21.50;75.20;;;;;;5084512;28;20340;-74
2021/11/13 01:58:53;;;;;;;1.23;0.08;;;21.30;75.30;;;;;;5091629;28;20557;-73
2021/11/13 02:01:23;;;;;;;0.00;0.00;;;21.10;75.50;;;;;;5089658;28;20032;-74
2021/11/13 02:03:52;;;;;;;0.05;0.00;;;20.70;76.70;;;;;;5095088;28;20482;-74
2021/11/13 02:06:21;;;;;;;0.10;0.00;;;20.80;76.70;;;;;;5087296;28;20028;-72
2021/11/13 02:08:49;;;;;;;0.10;0.05;;;20.40;76.20;;;;;;5081064;28;20035;-74
2021/11/13 02:11:20;;;;;;;0.00;0.00;;;20.40;77.70;;;;;;5091080;28;20020;-73
2021/11/13 02:13:48;;;;;;;0.03;0.03;;;20.40;76.60;;;;;;5095127;28;20043;-75
2021/11/13 02:16:15;;;;;;;0.20;0.00;;;20.50;76.30;;;;;;5088550;28;20087;-75
2021/11/13 02:18:44;;;;;;;0.00;0.00;;;20.50;76.60;;;;;;5094222;28;20027;-76
2021/11/13 02:21:12;;;;;;;0.00;0.00;;;20.50;76.90;;;;;;5084157;28;20056;-73
2021/11/13 02:23:41;;;;;;;0.22;0.15;;;20.60;76.80;;;;;;5078486;28;20534;-76
2021/11/13 02:26:08;;;;;;;0.00;0.00;;;20.50;76.70;;;;;;5091261;28;20039;-75
2021/11/13 02:28:36;;;;;;;0.17;0.00;;;20.70;77.70;;;;;;5086528;28;20035;-78
2021/11/13 02:31:07;;;;;;;0.03;0.00;;;20.70;77.30;;;;;;5087566;28;20038;-77
2021/11/13 02:33:36;;;;;;;0.03;0.00;;;20.90;75.70;;;;;;5083263;28;20048;-77
2021/11/13 02:36:05;;;;;;;0.10;0.00;;;21.10;76.80;;;;;;5081404;28;20085;-78
2021/11/13 02:38:36;;;;;;;0.00;0.00;;;21.40;75.50;;;;;;5076971;28;20445;-78
2021/11/13 02:41:06;;;;;;;0.15;0.00;;;21.60;74.20;;;;;;5083045;28;20027;-76
2021/11/13 02:43:35;;;;;;;0.63;0.00;;;21.60;75.50;;;;;;5080438;28;20035;-74
2021/11/13 02:46:05;;;;;;;0.80;0.00;;;21.60;74.30;;;;;;5085981;28;20035;-75
2021/11/13 02:48:38;;;;;;;0.00;0.00;;;21.50;74.10;;;;;;5081573;28;20031;-74
2021/11/13 02:51:07;;;;;;;0.00;0.00;;;21.40;75.70;;;;;;5079080;28;20582;-78
2021/11/13 02:53:34;;;;;;;0.00;0.00;;;21.20;75.40;;;;;;5090772;28;20040;-77
2021/11/13 02:56:05;;;;;;;0.17;0.00;;;21.10;76.20;;;;;;5098287;28;20020;-76
2021/11/13 02:58:35;;;;;;;0.00;0.00;;;21.10;76.80;;;;;;5087596;28;20024;-76
2021/11/13 03:01:23;;;;;;;0.03;0.00;;;21.20;75.80;;;;;;5088879;28;20066;-76
2021/11/13 03:03:55;;;;;;;0.00;0.00;;;21.50;75.80;;;;;;5089495;28;20063;-76
2021/11/13 03:06:24;;;;;;;0.20;0.00;;;21.60;75.20;;;;;;5089862;28;20028;-78
2021/11/13 03:08:54;;;;;;;2.63;0.17;;;21.50;74.50;;;;;;5085360;28;20035;-75
2021/11/13 03:11:22;;;;;;;0.05;0.00;;;21.40;76.10;;;;;;5085015;28;20489;-76
2021/11/13 03:13:52;;;;;;;0.10;0.00;;;21.40;75.00;;;;;;5087466;28;20106;-75
2021/11/13 03:16:21;;;;;;;0.00;0.00;;;21.10;75.70;;;;;;5090239;28;20016;-74
2021/11/13 03:18:48;;;;;;;0.13;0.00;;;20.90;75.30;;;;;;5088613;28;20024;-76
2021/11/13 03:21:16;;;;;;;0.10;0.00;;;20.70;75.80;;;;;;5089606;28;20215;-78
2021/11/13 03:23:46;;;;;;;0.00;0.00;;;20.50;76.60;;;;;;5089856;28;20031;-78
2021/11/13 03:26:24;;;;;;;1.23;0.30;;;20.30;77.90;;;;;;5088007;28;20111;-77
2021/11/13 03:29:06;;;;;;;0.32;0.00;;;20.30;78.50;;;;;;5087623;28;20035;-75
2021/11/13 03:31:33;;;;;;;0.00;0.00;;;20.20;77.60;;;;;;5090755;28;20046;-78
2021/11/13 03:34:00;;;;;;;0.00;0.00;;;20.00;78.20;;;;;;5082721;28;20044;-77
2021/11/13 03:36:28;;;;;;;0.28;0.10;;;20.10;78.10;;;;;;5089322;28;20031;-77
2021/11/13 03:38:55;;;;;;;0.65;0.00;;;20.00;77.40;;;;;;5086271;28;20028;-75
2021/11/13 03:41:23;;;;;;;0.00;0.00;;;20.00;78.10;;;;;;5090074;28;20055;-75
2021/11/13 03:43:52;;;;;;;0.08;0.08;;;20.20;79.00;;;;;;5084502;28;20356;-76
2021/11/13 03:46:20;;;;;;;0.80;0.10;;;20.30;78.10;;;;;;5088323;28;20026;-75
2021/11/13 03:48:50;;;;;;;0.00;0.00;;;20.40;78.50;;;;;;5088591;28;20026;-75
2021/11/13 03:51:18;;;;;;;0.00;0.00;;;20.50;77.50;;;;;;5081023;28;20165;-74
2021/11/13 03:53:47;;;;;;;0.08;0.00;;;20.40;78.00;;;;;;5089349;28;20067;-74
2021/11/13 03:56:15;;;;;;;0.10;0.00;;;20.30;78.90;;;;;;5088143;28;20035;-73
2021/11/13 03:58:42;;;;;;;0.00;0.00;;;20.30;79.90;;;;;;5082320;28;20059;-73
2021/11/13 04:01:10;;;;;;;0.10;0.10;;;20.50;77.70;;;;;;5083211;28;20028;-76
2021/11/13 04:03:37;;;;;;;0.00;0.00;;;20.60;79.10;;;;;;5079219;28;20114;-76
2021/11/13 04:06:05;;;;;;;0.10;0.10;;;20.80;77.70;;;;;;5081226;28;20432;-75
2021/11/13 04:08:32;;;;;;;0.00;0.00;;;20.80;77.90;;;;;;5079110;28;20025;-75
2021/11/13 04:10:59;;;;;;;0.00;0.00;;;21.00;76.50;;;;;;5079815;28;20024;-75
2021/11/13 04:13:27;;;;;;;0.00;0.00;;;21.10;75.80;;;;;;5085801;28;20035;-76
2021/11/13 04:15:54;;;;;;;0.00;0.00;;;21.00;76.90;;;;;;5077525;28;20765;-77
2021/11/13 04:18:21;;;;;;;0.00;0.00;;;21.30;76.60;;;;;;5082736;28;20028;-76
2021/11/13 04:20:49;;;;;;;0.17;0.17;;;21.30;76.60;;;;;;5080148;28;20074;-75
2021/11/13 04:23:16;;;;;;;0.63;0.00;;;21.50;76.20;;;;;;5080047;28;20024;-76
2021/11/13 04:25:44;;;;;;;0.10;0.00;;;21.70;75.80;;;;;;5077135;28;20042;-76
2021/11/13 04:28:11;;;;;;;0.00;0.00;;;21.90;76.20;;;;;;5074934;28;20043;-75
2021/11/13 04:30:38;;;;;;;0.00;0.00;;;22.10;74.90;;;;;;5077965;28;20169;-76
2021/11/13 04:33:06;;;;;;;0.00;0.00;;;21.80;76.50;;;;;;5082059;28;20146;-77
2021/11/13 04:38:03;;;;;;;0.00;0.00;;;22.00;75.50;;;;;;5077631;28;20023;-77
2021/11/13 04:40:33;;;;;;;0.00;0.00;;;22.20;75.00;;;;;;5076959;28;20120;-77
2021/11/13 04:43:01;;;;;;;0.00;0.00;;;22.20;75.80;;;;;;5078705;28;20067;-75
2021/11/13 04:45:29;;;;;;;0.00;0.00;;;22.00;74.70;;;;;;5080015;28;21112;-75
2021/11/13 04:47:56;;;;;;;0.10;0.10;;;21.90;74.90;;;;;;5078207;28;20066;-74
2021/11/13 04:50:26;;;;;;;0.25;0.20;;;21.90;76.40;;;;;;5058344;28;20403;-75
2021/11/13 04:52:55;;;;;;;0.75;0.00;;;22.30;75.80;;;;;;5080975;28;20487;-75
2021/11/13 04:55:22;;;;;;;0.30;0.00;;;22.60;75.00;;;;;;5082594;28;20035;-75
2021/11/13 04:57:50;;;;;;;0.00;0.00;;;22.50;74.40;;;;;;5081602;28;20415;-74
2021/11/13 05:00:20;;;;;;;0.00;0.00;;;22.30;74.70;;;;;;5078609;28;20487;-75
2021/11/13 05:02:48;;;;;;;1.25;0.00;;;22.40;74.60;;;;;;5076087;28;20055;-74
2021/11/13 05:05:15;;;;;;;0.25;0.00;;;22.40;76.60;;;;;;5078852;28;20066;-74
2021/11/13 05:07:43;;;;;;;0.00;0.00;;;22.50;75.20;;;;;;5077803;28;20055;-74
2021/11/13 05:10:11;;;;;;;0.00;0.00;;;22.40;75.70;;;;;;5081156;28;20028;-74
2021/11/13 05:12:39;;;;;;;0.05;0.00;;;22.00;75.90;;;;;;5079162;28;20028;-75
2021/11/13 05:15:08;;;;;;;0.55;0.30;;;21.70;75.70;;;;;;5061686;28;20024;-76
2021/11/13 05:17:36;;;;;;;0.30;0.20;;;21.40;76.50;;;;;;5078329;28;20028;-74
2021/11/13 05:20:07;;;;;;;0.13;0.10;;;21.20;76.40;;;;;;5076174;28;20078;-75
2021/11/13 05:22:40;;;;;;;0.00;0.00;;;21.10;76.40;;;;;;5081856;28;20030;-74
2021/11/13 05:25:09;;;;;;;0.00;0.00;;;21.20;77.70;;;;;;5087699;28;20032;-74
2021/11/13 05:27:38;;;;;;;0.80;0.00;;;21.30;77.70;;;;;;5089499;28;20024;-74
2021/11/13 05:30:09;;;;;;;0.10;0.00;;;21.40;78.70;;;;;;5085444;28;20032;-73
2021/11/13 05:32:36;;;;;;;0.17;0.03;;;21.40;77.70;;;;;;5083021;28;20020;-75
2021/11/13 05:35:05;;;;;;;0.00;0.00;;;21.50;76.90;;;;;;5091339;28;20058;-74
2021/11/13 05:37:32;;;;;;;0.00;0.00;;;21.50;76.70;;;;;;5067015;28;20602;-75
2021/11/13 05:40:00;;;;;;;0.00;0.00;;;21.30;76.40;;;;;;5081057;28;20028;-74
2021/11/13 05:42:27;;;;;;;0.00;0.00;;;21.30;77.40;;;;;;5084505;28;20028;-73
2021/11/13 05:44:55;;;;;;;0.00;0.00;;;21.40;77.20;;;;;;5086985;28;20135;-77
2021/11/13 05:47:24;;;;;;;0.10;0.10;;;21.60;76.50;;;;;;5082537;28;20117;-76
2021/11/13 05:49:52;;;;;;;0.10;0.10;;;21.70;77.60;;;;;;5066819;28;20031;-73
2021/11/13 05:52:20;;;;;;;0.00;0.00;;;21.80;77.70;;;;;;5083257;28;20390;-74
2021/11/13 05:54:47;;;;;;;0.10;0.10;;;22.00;77.00;;;;;;5091325;28;20024;-76
2021/11/13 05:57:14;;;;;;;0.17;0.00;;;21.80;77.00;;;;;;5082812;28;20039;-74
2021/11/13 05:59:42;;;;;;;0.00;0.00;;;21.70;76.90;;;;;;5083729;28;20083;-74
2021/11/13 06:02:09;;;;;;;0.03;0.00;;;21.40;76.40;;;;;;5085398;28;20024;-77
2021/11/13 06:04:37;;;;;;;0.22;0.00;;;21.30;76.20;;;;;;5067353;28;20052;-75
2021/11/13 06:07:05;;;;;;;0.00;0.00;;;21.10;77.50;;;;;;5079789;28;20035;-76
2021/11/13 06:09:33;;;;;;;0.00;0.00;;;21.10;78.20;;;;;;5085597;28;20032;-75
2021/11/13 06:12:00;;;;;;;0.10;0.00;;;21.10;77.70;;;;;;5080967;28;20051;-74
2021/11/13 06:14:28;;;;;;;0.00;0.00;;;21.20;76.90;;;;;;5078605;28;20082;-76
2021/11/13 06:16:55;;;;;;;0.00;0.00;;;21.40;76.70;;;;;;5078637;28;20024;-74
2021/11/13 06:19:23;;;;;;;0.30;0.00;;;21.60;75.80;;;;;;5087603;28;20035;-75
2021/11/13 06:21:50;;;;;;;0.00;0.00;;;21.60;75.60;;;;;;5078097;28;20143;-76
2021/11/13 06:24:18;;;;;;;0.55;0.00;;;21.60;76.00;;;;;;5078194;28;20101;-76
2021/11/13 06:26:45;;;;;;;0.10;0.00;;;21.40;75.80;;;;;;5079162;28;20497;-74
2021/11/13 06:29:13;;;;;;;0.10;0.00;;;21.40;76.10;;;;;;5078502;28;20471;-73
2021/11/13 06:31:40;;;;;;;0.00;0.00;;;21.30;76.60;;;;;;5080814;28;20016;-73
2021/11/13 06:34:07;;;;;;;0.00;0.00;;;21.30;77.10;;;;;;5078206;28;20384;-75
2021/11/13 06:36:36;;;;;;;1.00;0.05;;;21.30;76.60;;;;;;5079723;28;20433;-75
2021/11/13 06:39:04;;;;;;;0.10;0.08;;;21.30;76.60;;;;;;5063906;28;20181;-75
2021/11/13 06:41:31;;;;;;;0.15;0.00;;;21.40;76.30;;;;;;5079816;28;20043;-75
2021/11/13 06:43:59;;;;;;;0.00;0.00;;;21.50;77.50;;;;;;5081555;28;20035;-76
2021/11/13 06:46:27;;;;;;;0.10;0.00;;;21.60;76.40;;;;;;5081727;28;20032;-75
2021/11/13 06:48:54;;;;;;;1.17;0.10;;;21.50;76.30;;;;;;5083347;28;20103;-75
2021/11/13 06:51:22;;;;;;;0.00;0.00;;;21.30;76.30;;;;;;5078585;28;20028;-75
2021/11/13 06:53:49;;;;;;;0.00;0.00;;;21.00;76.90;;;;;;5077773;28;20036;-75
2021/11/13 06:56:17;;;;;;;0.28;0.10;;;21.10;78.00;;;;;;5083865;28;20056;-75
2021/11/13 06:58:44;;;;;;;0.00;0.00;;;21.20;77.10;;;;;;5080696;28;20032;-76
2021/11/13 07:01:11;;;;;;;0.00;0.00;;;21.30;77.50;;;;;;5085241;28;20020;-74
2021/11/13 07:03:39;;;;;;;0.00;0.00;;;21.40;77.30;;;;;;5081876;28;20028;-74
2021/11/13 07:06:06;;;;;;;0.00;0.00;;;21.20;76.60;;;;;;5080913;28;20020;-73
2021/11/13 07:08:34;;;;;;;0.00;0.00;;;20.90;77.60;;;;;;5083008;28;20039;-73
2021/11/13 07:11:01;;;;;;;0.00;0.00;;;20.70;78.10;;;;;;5080710;28;20114;-75
2021/11/13 07:13:29;;;;;;;0.03;0.00;;;20.50;78.60;;;;;;5083791;28;20081;-75
2021/11/13 07:15:56;;;;;;;0.00;0.00;;;20.30;79.20;;;;;;5078839;28;20040;-75
2021/11/13 07:18:23;;;;;;;0.00;0.00;;;20.20;79.30;;;;;;5080215;28;20534;-74
2021/11/13 07:20:58;;;;;;;0.00;0.00;;;20.10;79.80;;;;;;5081990;28;20081;-75
2021/11/13 07:23:26;;;;;;;0.17;0.00;;;20.00;80.20;;;;;;5080881;28;20039;-74
2021/11/13 07:25:53;;;;;;;0.10;0.00;;;20.00;81.00;;;;;;5079924;28;20429;-74
2021/11/13 07:28:33;;;;;;;0.10;0.00;;;20.00;80.90;;;;;;5084976;28;20542;-74
2021/11/13 07:31:00;;;;;;;0.15;0.03;;;20.00;81.00;;;;;;5081475;28;20507;-73
2021/11/13 07:33:28;;;;;;;0.00;0.00;;;20.00;81.40;;;;;;5090649;28;20136;-72
2021/11/13 07:35:55;;;;;;;0.20;0.00;;;20.00;81.30;;;;;;5090194;28;20032;-73
2021/11/13 07:38:22;;;;;;;0.10;0.00;;;20.00;81.80;;;;;;5081039;28;20036;-73
2021/11/13 07:40:50;;;;;;;0.00;0.00;;;19.90;81.50;;;;;;5084111;28;20025;-73
2021/11/13 07:43:18;;;;;;;0.00;0.00;;;20.00;81.90;;;;;;5078011;28;20052;-72
2021/11/13 07:45:45;;;;;;;0.22;0.10;;;19.90;82.40;;;;;;5082949;28;20032;-74
2021/11/13 07:48:13;;;;;;;1.17;0.00;;;19.90;81.90;;;;;;5082030;28;20038;-73
2021/11/13 07:50:41;;;;;;;0.00;0.00;;;19.90;82.40;;;;;;5071740;28;20099;-74
2021/11/13 07:53:10;;;;;;;0.00;0.00;;;19.80;82.80;;;;;;5092651;28;20398;-74
2021/11/13 07:55:38;;;;;;;0.10;0.10;;;19.80;83.00;;;;;;5065274;28;20029;-75
2021/11/13 07:58:07;;;;;;;0.00;0.00;;;19.70;83.10;;;;;;5076404;28;20470;-75
2021/11/13 08:00:35;;;;;;;0.00;0.00;;;19.70;83.00;;;;;;5085201;28;20127;-75
2021/11/13 08:03:02;;;;;;;0.00;0.00;;;19.60;83.30;;;;;;5086546;28;20036;-75
2021/11/13 08:05:30;;;;;;;0.05;0.05;;;19.60;83.50;;;;;;5084465;28;20032;-75
2021/11/13 08:07:57;;;;;;;0.00;0.00;;;19.60;84.00;;;;;;5077997;28;20024;-74
2021/11/13 08:10:24;;;;;;;0.20;0.00;;;19.50;83.70;;;;;;5078300;28;20016;-75
2021/11/13 08:12:52;;;;;;;1.98;0.08;;;19.50;84.50;;;;;;5078298;28;20028;-76
2021/11/13 08:15:19;;;;;;;0.10;0.00;;;19.50;84.50;;;;;;5077423;28;20099;-75
2021/11/13 08:17:47;;;;;;;0.30;0.10;;;19.40;84.60;;;;;;5076234;28;20028;-74
2021/11/13 08:20:15;;;;;;;1.45;0.40;;;19.40;85.00;;;;;;5079903;28;20028;-75
2021/11/13 08:22:44;;;;;;;0.10;0.10;;;19.30;85.90;;;;;;5080229;28;20453;-75
2021/11/13 08:25:14;;;;;;;0.30;0.10;;;19.30;86.10;;;;;;5063344;28;20073;-74
2021/11/13 08:27:43;;;;;;;0.10;0.10;;;19.30;85.90;;;;;;5085478;28;20284;-74
2021/11/13 08:30:12;;;;;;;0.10;0.00;;;19.30;86.60;;;;;;5088868;28;20024;-74
2021/11/13 08:32:40;;;;;;;0.10;0.10;;;19.30;87.40;;;;;;5089557;28;20389;-73
2021/11/13 08:35:09;;;;;;;0.10;0.10;;;19.20;87.30;;;;;;5082619;28;20039;-74
2021/11/13 08:37:38;;;;;;;0.00;0.00;;;19.20;87.80;;;;;;5067189;28;20123;-73
2021/11/13 08:40:07;;;;;;;0.73;0.10;;;19.20;88.70;;;;;;5086803;28;20032;-74
2021/11/13 08:42:34;;;;;;;2.10;0.20;;;19.20;88.70;;;;;;5080886;28;20108;-75
2021/11/13 08:45:02;;;;;;;0.28;0.10;;;19.10;88.20;;;;;;5088507;28;20027;-77
2021/11/13 08:47:29;;;;;;;0.32;0.10;;;19.10;87.90;;;;;;5086402;28;20078;-78
2021/11/13 08:49:56;;;;;;;0.20;0.10;;;19.10;88.20;;;;;;5089290;28;20044;-77
2021/11/13 08:52:24;;;;;;;0.25;0.20;;;19.00;88.40;;;;;;5075595;28;20028;-76
2021/11/13 08:54:51;;;;;;;0.20;0.17;;;19.10;88.60;;;;;;5084304;28;20060;-76
2021/11/13 08:57:19;;;;;;;0.20;0.08;;;19.00;89.00;;;;;;5086797;28;20049;-75
2021/11/13 08:59:47;;;;;;;0.57;0.20;;;19.10;89.60;;;;;;5054786;28;20119;-77
2021/11/13 09:02:21;;;;;;;0.20;0.15;;;19.00;89.70;;;;;;5074033;28;20484;-74
2021/11/13 09:04:50;;;;;;;1.17;0.30;;;19.00;90.10;;;;;;5084266;28;20020;-76
2021/11/13 09:07:19;;;;;;;0.43;0.15;;;19.00;90.30;;;;;;5085944;28;20107;-75
2021/11/13 09:09:48;;;;;;;0.50;0.22;;;19.00;90.70;;;;;;5083291;28;20020;-73
2021/11/13 09:12:26;;;;;;;0.52;0.30;;;19.00;90.80;;;;;;5083238;28;20064;-75
2021/11/13 09:15:03;;;;;;;0.55;0.30;;;18.90;91.00;;;;;;5090285;28;20036;-75
2021/11/13 09:17:31;;;;;;;0.40;0.30;;;18.90;91.30;;;;;;5080509;28;20043;-77
2021/11/13 09:19:58;;;;;;;0.63;0.20;;;18.90;91.30;;;;;;5087635;28;20774;-76
2021/11/13 09:22:26;;;;;;;0.30;0.20;;;18.90;91.20;;;;;;5091538;28;20034;-76
2021/11/13 09:24:54;;;;;;;0.00;0.00;;;18.90;91.40;;;;;;5078681;28;20099;-76
2021/11/13 09:27:21;;;;;;;0.15;0.10;;;18.80;91.40;;;;;;5086622;28;20158;-76
2021/11/13 09:29:49;;;;;;;0.22;0.03;;;18.80;91.00;;;;;;5080675;28;20025;-75
2021/11/13 09:32:17;;;;;;;0.10;0.10;;;18.80;91.40;;;;;;5084772;28;20162;-78
2021/11/13 09:34:45;;;;;;;0.10;0.10;;;18.80;91.20;;;;;;5072009;28;20053;-75
2021/11/13 09:37:12;;;;;;;0.25;0.10;;;18.80;91.30;;;;;;5088195;28;20028;-78
2021/11/13 09:39:40;;;;;;;0.30;0.20;;;18.70;91.40;;;;;;5071194;28;20021;-77
2021/11/13 09:42:07;;;;;;;0.22;0.17;;;18.70;91.40;;;;;;5079236;28;20028;-73
2021/11/13 09:44:35;;;;;;;0.05;0.00;;;18.70;91.60;;;;;;5081221;28;20490;-75
2021/11/13 09:47:04;;;;;;;0.22;0.10;;;18.70;91.60;;;;;;5082769;28;20028;-76
2021/11/13 09:49:33;;;;;;;0.10;0.10;;;18.70;91.80;;;;;;5086404;28;20032;-76
2021/11/13 09:52:01;;;;;;;0.10;0.10;;;18.70;91.90;;;;;;5087104;28;20142;-76
2021/11/13 09:54:29;;;;;;;0.20;0.10;;;18.70;92.30;;;;;;5070016;28;20040;-75
2021/11/13 09:56:57;;;;;;;0.85;0.20;;;18.60;92.70;;;;;;5085137;28;20021;-76
2021/11/13 09:59:25;;;;;;;0.10;0.10;;;18.60;92.50;;;;;;5075109;28;20033;-73
2021/11/13 10:01:53;;;;;;;0.13;0.10;;;18.60;92.40;;;;;;5081952;28;20544;-77
2021/11/13 10:04:23;;;;;;;0.13;0.10;;;18.60;92.40;;;;;;5083717;28;20041;-77
2021/11/13 10:06:50;;;;;;;0.30;0.15;;;18.50;92.40;;;;;;5083607;28;20028;-76
2021/11/13 10:09:18;;;;;;;1.75;0.13;;;18.60;92.20;;;;;;5080014;28;20155;-75
2021/11/13 10:11:50;;;;;;;0.15;0.00;;;18.60;92.20;;;;;;5080836;28;20028;-74
2021/11/13 10:14:40;;;;;;;0.10;0.10;;;18.50;91.80;;;;;;5091607;28;20044;-74
2021/11/13 10:17:25;;;;;;;0.38;0.15;;;18.60;91.50;;;;;;5083759;28;20452;-74
2021/11/13 10:19:53;;;;;;;1.20;0.50;;;18.50;91.80;;;;;;5080672;28;20025;-74
2021/11/13 10:22:21;;;;;;;0.40;0.40;;;18.50;92.00;;;;;;5088849;28;20028;-75
2021/11/13 10:24:52;;;;;;;3.50;0.80;;;18.40;92.30;;;;;;5094742;28;20430;-75
2021/11/13 10:27:21;;;;;;;0.10;0.10;;;18.40;92.70;;;;;;5084254;28;20078;-74
2021/11/13 10:29:50;;;;;;;0.10;0.10;;;18.40;92.60;;;;;;5088607;28;20413;-76
2021/11/13 10:32:21;;;;;;;0.00;0.00;;;18.40;92.60;;;;;;5078298;28;20033;-74
2021/11/13 10:34:52;;;;;;;0.00;0.00;;;18.40;92.60;;;;;;5059632;28;20044;-75
2021/11/13 10:37:31;;;;;;;0.00;0.00;;;18.30;92.90;;;;;;5081261;28;20992;-75
2021/11/13 10:40:03;;;;;;;0.08;0.05;;;18.30;92.80;;;;;;5087664;28;20494;-75
2021/11/13 10:42:30;;;;;;;0.00;0.00;;;18.30;92.20;;;;;;5084442;28;20493;-75
2021/11/13 10:45:00;;;;;;;0.00;0.00;;;18.30;92.50;;;;;;5086460;28;20303;-74
2021/11/13 10:47:36;;;;;;;0.00;0.00;;;18.30;92.80;;;;;;5087073;28;20039;-74
2021/11/13 10:50:25;;;;;;;0.10;0.00;;;18.30;92.90;;;;;;5078971;28;20457;-74
2021/11/13 10:53:01;;;;;;;0.08;0.00;;;18.20;93.00;;;;;;5085551;28;20044;-76
2021/11/13 10:55:29;;;;;;;0.00;0.00;;;18.20;93.20;;;;;;5089661;28;20035;-75
2021/11/13 10:58:36;;;;;;;0.00;0.00;;;18.20;93.00;;;;;;5086576;28;20016;-75
2021/11/13 11:01:08;;;;;;;0.00;0.00;;;18.10;93.30;;;;;;5089975;28;20111;-76
2021/11/13 11:03:41;;;;;;;0.30;0.00;;;18.10;93.40;;;;;;5080336;28;20035;-75
2021/11/13 11:06:20;;;;;;;0.00;0.00;;;18.10;93.50;;;;;;5077745;28;20034;-76
2021/11/13 11:08:48;;;;;;;0.00;0.00;;;18.10;93.70;;;;;;5091084;28;20036;-76
2021/11/13 11:11:36;;;;;;;0.00;0.00;;;18.00;93.90;;;;;;5090809;28;20067;-76
2021/11/13 11:14:10;;;;;;;0.00;0.00;;;18.00;94.40;;;;;;5092214;28;20058;-77
2021/11/13 11:16:44;;;;;;;0.00;0.00;;;18.00;94.20;;;;;;5085672;28;20020;-76
2021/11/13 11:19:11;;;;;;;0.00;0.00;;;17.90;94.60;;;;;;5090375;28;20033;-76
2021/11/13 11:21:40;;;;;;;0.10;0.00;;;17.90;94.60;;;;;;5089296;28;20089;-75
2021/11/13 11:24:21;;;;;;;0.00;0.00;;;17.90;94.50;;;;;;5091694;28;20023;-76
2021/11/13 11:26:56;;;;;;;0.00;0.00;;;17.90;94.40;;;;;;5085776;28;20020;-76
2021/11/13 11:29:24;;;;;;;0.03;0.03;;;17.90;94.30;;;;;;5077754;28;20036;-75
2021/11/13 11:31:55;;;;;;;0.10;0.00;;;17.90;94.50;;;;;;5082265;28;20094;-74
2021/11/13 11:34:25;;;;;;;2.30;0.10;;;17.80;94.50;;;;;;5085506;28;20043;-74
2021/11/13 11:36:54;;;;;;;0.00;0.00;;;17.80;94.30;;;;;;5049544;28;20036;-75
2021/11/13 11:39:22;;;;;;;0.00;0.00;;;17.80;94.30;;;;;;5061192;28;20024;-74
2021/11/13 11:41:51;;;;;;;0.00;0.00;;;17.80;94.40;;;;;;5075793;28;20139;-73
2021/11/13 11:44:19;;;;;;;0.00;0.00;;;17.80;94.30;;;;;;5080830;28;20036;-74
2021/11/13 11:46:47;;;;;;;0.00;0.00;;;17.70;94.40;;;;;;5079058;28;20648;-75
2021/11/13 11:49:15;;;;;;;0.20;0.00;;;17.70;94.30;;;;;;5082819;28;20050;-74
2021/11/13 11:51:44;;;;;;;0.00;0.00;;;17.70;94.20;;;;;;5084862;28;20036;-77
2021/11/13 11:54:12;;;;;;;0.00;0.00;;;17.70;93.80;;;;;;5091842;28;20081;-76
2021/11/13 11:56:40;;;;;;;0.00;0.00;;;17.70;93.60;;;;;;5091180;28;20031;-76
2021/11/13 11:59:08;;;;;;;0.08;0.00;;;17.70;93.90;;;;;;5085019;28;20134;-74
2021/11/13 12:01:41;;;;;;;0.00;0.00;;;17.70;94.20;;;;;;5083132;28;20040;-75
2021/11/13 12:04:14;;;;;;;0.00;0.00;;;17.70;93.90;;;;;;5058013;28;20054;-77
2021/11/13 12:06:51;;;;;;;0.10;0.00;;;17.60;94.00;;;;;;5082555;28;20374;-75
2021/11/13 12:09:19;;;;;;;0.00;0.00;;;17.60;94.20;;;;;;5087560;28;20024;-75
2021/11/13 12:11:48;;;;;;;0.00;0.00;;;17.60;93.80;;;;;;5072256;28;20027;-75
2021/11/13 12:14:37;;;;;;;0.10;0.00;;;17.50;93.90;;;;;;5078190;28;20101;-75
2021/11/13 12:17:28;;;;;;;0.13;0.10;;;17.50;94.20;;;;;;5075932;28;20016;-74
2021/11/13 12:20:08;;;;;;;0.00;0.00;;;17.50;94.60;;;;;;5080129;28;20035;-77
2021/11/13 12:22:46;;;;;;;0.00;0.00;;;17.50;94.50;;;;;;5080347;28;20032;-75
2021/11/13 12:25:17;;;;;;;0.00;0.00;;;17.40;94.50;;;;;;5077739;28;20110;-75
2021/11/13 12:28:18;;;;;;;0.00;0.00;;;17.40;94.90;;;;;;5082301;28;20052;-75
2021/11/13 12:30:47;;;;;;;0.00;0.00;;;17.30;95.20;;;;;;5077688;28;20035;-77
2021/11/13 12:33:30;;;;;;;0.05;0.00;;;17.30;95.50;;;;;;5077156;28;20051;-76
2021/11/13 12:36:20;;;;;;;0.20;0.00;;;17.20;94.80;;;;;;5079044;28;20024;-76
2021/11/13 12:38:54;;;;;;;0.00;0.00;;;17.10;94.80;;;;;;5077849;28;20035;-75
2021/11/13 12:41:26;;;;;;;0.00;0.00;;;17.10;94.30;;;;;;5078042;28;22117;-73
2021/11/13 12:43:57;;;;;;;0.00;0.00;;;17.10;92.70;;;;;;5078106;28;20028;-75
2021/11/13 12:46:36;;;;;;;0.00;0.00;;;17.10;93.30;;;;;;5076888;28;20020;-75
2021/11/13 12:49:18;;;;;;;0.00;0.00;;;17.00;93.30;;;;;;5078005;28;20024;-74
2021/11/13 12:51:56;;;;;;;0.00;0.00;;;17.00;92.80;;;;;;5058310;28;20028;-74
2021/11/13 12:54:34;;;;;;;0.00;0.00;;;17.00;92.80;;;;;;5078374;28;20254;-75
2021/11/13 12:57:25;;;;;;;0.00;0.00;;;17.00;92.60;;;;;;5079571;28;20396;-74
2021/11/13 13:00:27;;;;;;;0.10;0.00;;;17.00;92.50;;;;;;5080648;28;20020;-74
2021/11/13 13:02:54;;;;;;;0.00;0.00;;;17.00;92.10;;;;;;5073188;28;20036;-75